sensor_id;sensor_type;location;lat;lon;timestamp;P1;durP1;ratioP1;P2;durP2;ratioP2
14205;SDS011;7186;48.800;9.216;2022-12-07T00:00:49;10.43;;;6.47;;
14205;SDS011;7186;48.800;9.216;2022-12-07T00:03:14;10.80;;;6.80;;
14205;SDS011;7186;48.800;9.216;2022-12-07T00:05:39;9.17;;;6.03;;
14205;SDS011;7186;48.800;9.216;2022-12-07T00:08:04;10.03;;;7.20;;
14205;SDS011;7186;48.800;9.216;2022-12-07T00:10:29;9.37;;;6.47;;
14205;SDS011;7186;48.800;9.216;2022-12-07T00:12:54;10.07;;;6.93;;
14205;SDS011;7186;48.800;9.216;2022-12-07T00:15:20;10.23;;;7.43;;
14205;SDS011;7186;48.800;9.216;2022-12-07T00:17:45;9.73;;;7.27;;
14205;SDS011;7186;48.800;9.216;2022-12-07T00:20:10;8.13;;;6.90;;
14205;SDS011;7186;48.800;9.216;2022-12-07T00:22:35;12.30;;;7.30;;
14205;SDS011;7186;48.800;9.216;2022-12-07T00:25:01;10.87;;;7.47;;
14205;SDS011;7186;48.800;9.216;2022-12-07T00:27:26;9.30;;;6.57;;
14205;SDS011;7186;48.800;9.216;2022-12-07T00:29:52;10.47;;;7.77;;
14205;SDS011;7186;48.800;9.216;2022-12-07T00:32:17;14.60;;;7.77;;
14205;SDS011;7186;48.800;9.216;2022-12-07T00:34:42;8.90;;;7.10;;
14205;SDS011;7186;48.800;9.216;2022-12-07T00:37:07;11.07;;;7.27;;
14205;SDS011;7186;48.800;9.216;2022-12-07T00:39:32;9.73;;;7.37;;
14205;SDS011;7186;48.800;9.216;2022-12-07T00:41:58;10.83;;;8.00;;
14205;SDS011;7186;48.800;9.216;2022-12-07T00:44:23;11.83;;;7.97;;
14205;SDS011;7186;48.800;9.216;2022-12-07T00:46:48;11.27;;;8.17;;
14205;SDS011;7186;48.800;9.216;2022-12-07T00:49:13;9.67;;;7.63;;
14205;SDS011;7186;48.800;9.216;2022-12-07T00:51:38;11.60;;;7.70;;
14205;SDS011;7186;48.800;9.216;2022-12-07T00:54:04;10.10;;;7.77;;
14205;SDS011;7186;48.800;9.216;2022-12-07T00:56:29;10.37;;;7.20;;
14205;SDS011;7186;48.800;9.216;2022-12-07T00:58:58;10.50;;;7.43;;
14205;SDS011;7186;48.800;9.216;2022-12-07T01:01:25;10.93;;;7.67;;
14205;SDS011;7186;48.800;9.216;2022-12-07T01:03:50;12.67;;;8.17;;
14205;SDS011;7186;48.800;9.216;2022-12-07T01:06:16;11.50;;;7.97;;
14205;SDS011;7186;48.800;9.216;2022-12-07T01:08:42;11.37;;;7.57;;
14205;SDS011;7186;48.800;9.216;2022-12-07T01:11:07;11.60;;;7.50;;
14205;SDS011;7186;48.800;9.216;2022-12-07T01:13:35;18.20;;;8.50;;
14205;SDS011;7186;48.800;9.216;2022-12-07T01:16:01;11.67;;;7.77;;
14205;SDS011;7186;48.800;9.216;2022-12-07T01:18:27;12.80;;;7.63;;
14205;SDS011;7186;48.800;9.216;2022-12-07T01:21:04;15.43;;;8.63;;
14205;SDS011;7186;48.800;9.216;2022-12-07T01:23:30;11.70;;;8.10;;
14205;SDS011;7186;48.800;9.216;2022-12-07T01:25:59;14.03;;;8.40;;
14205;SDS011;7186;48.800;9.216;2022-12-07T01:28:25;11.47;;;7.30;;
14205;SDS011;7186;48.800;9.216;2022-12-07T01:33:22;12.67;;;7.67;;
14205;SDS011;7186;48.800;9.216;2022-12-07T01:35:47;12.33;;;8.13;;
14205;SDS011;7186;48.800;9.216;2022-12-07T01:38:13;13.07;;;8.13;;
14205;SDS011;7186;48.800;9.216;2022-12-07T01:40:38;10.97;;;7.97;;
14205;SDS011;7186;48.800;9.216;2022-12-07T01:43:04;14.40;;;8.70;;
14205;SDS011;7186;48.800;9.216;2022-12-07T01:47:58;12.40;;;7.63;;
14205;SDS011;7186;48.800;9.216;2022-12-07T01:50:24;12.00;;;8.03;;
14205;SDS011;7186;48.800;9.216;2022-12-07T01:52:51;12.73;;;8.33;;
14205;SDS011;7186;48.800;9.216;2022-12-07T01:55:16;16.37;;;8.50;;
14205;SDS011;7186;48.800;9.216;2022-12-07T01:57:43;10.83;;;7.53;;
14205;SDS011;7186;48.800;9.216;2022-12-07T02:00:10;12.60;;;8.43;;
14205;SDS011;7186;48.800;9.216;2022-12-07T02:02:51;14.57;;;8.50;;
14205;SDS011;7186;48.800;9.216;2022-12-07T02:05:17;15.03;;;9.37;;
14205;SDS011;7186;48.800;9.216;2022-12-07T02:07:43;11.30;;;7.63;;
14205;SDS011;7186;48.800;9.216;2022-12-07T02:10:16;12.43;;;7.60;;
14205;SDS011;7186;48.800;9.216;2022-12-07T02:12:41;15.37;;;8.50;;
14205;SDS011;7186;48.800;9.216;2022-12-07T02:15:07;13.33;;;8.67;;
14205;SDS011;7186;48.800;9.216;2022-12-07T02:17:38;14.03;;;8.87;;
14205;SDS011;7186;48.800;9.216;2022-12-07T02:20:13;10.87;;;8.47;;
14205;SDS011;7186;48.800;9.216;2022-12-07T02:30:24;11.70;;;8.17;;
14205;SDS011;7186;48.800;9.216;2022-12-07T02:33:03;12.53;;;7.83;;
14205;SDS011;7186;48.800;9.216;2022-12-07T02:38:59;12.10;;;8.67;;
14205;SDS011;7186;48.800;9.216;2022-12-07T02:41:03;11.50;;;7.57;;
14205;SDS011;7186;48.800;9.216;2022-12-07T02:44:03;10.53;;;7.40;;
14205;SDS011;7186;48.800;9.216;2022-12-07T02:46:23;11.13;;;7.50;;
14205;SDS011;7186;48.800;9.216;2022-12-07T02:48:51;12.73;;;8.13;;
14205;SDS011;7186;48.800;9.216;2022-12-07T02:51:17;13.30;;;8.13;;
14205;SDS011;7186;48.800;9.216;2022-12-07T02:53:43;11.17;;;7.27;;
14205;SDS011;7186;48.800;9.216;2022-12-07T02:56:13;13.20;;;7.93;;
14205;SDS011;7186;48.800;9.216;2022-12-07T03:03:56;13.90;;;9.00;;
14205;SDS011;7186;48.800;9.216;2022-12-07T03:06:27;11.50;;;7.93;;
14205;SDS011;7186;48.800;9.216;2022-12-07T03:09:27;14.97;;;8.77;;
14205;SDS011;7186;48.800;9.216;2022-12-07T03:11:46;13.13;;;7.50;;
14205;SDS011;7186;48.800;9.216;2022-12-07T03:14:23;10.47;;;7.37;;
14205;SDS011;7186;48.800;9.216;2022-12-07T03:16:55;12.50;;;8.10;;
14205;SDS011;7186;48.800;9.216;2022-12-07T03:19:21;12.13;;;7.63;;
14205;SDS011;7186;48.800;9.216;2022-12-07T03:21:49;12.37;;;7.77;;
14205;SDS011;7186;48.800;9.216;2022-12-07T03:24:20;10.87;;;7.10;;
14205;SDS011;7186;48.800;9.216;2022-12-07T03:26:47;11.47;;;7.40;;
14205;SDS011;7186;48.800;9.216;2022-12-07T03:29:24;10.67;;;7.53;;
14205;SDS011;7186;48.800;9.216;2022-12-07T03:31:52;13.70;;;8.20;;
14205;SDS011;7186;48.800;9.216;2022-12-07T03:34:24;13.23;;;7.60;;
14205;SDS011;7186;48.800;9.216;2022-12-07T03:37:03;10.37;;;6.97;;
14205;SDS011;7186;48.800;9.216;2022-12-07T03:39:44;11.77;;;7.10;;
14205;SDS011;7186;48.800;9.216;2022-12-07T03:42:11;11.90;;;7.90;;
14205;SDS011;7186;48.800;9.216;2022-12-07T03:44:38;11.10;;;7.87;;
14205;SDS011;7186;48.800;9.216;2022-12-07T03:47:06;11.23;;;7.70;;
14205;SDS011;7186;48.800;9.216;2022-12-07T03:54:47;13.43;;;7.47;;
14205;SDS011;7186;48.800;9.216;2022-12-07T03:57:14;14.03;;;8.13;;
14205;SDS011;7186;48.800;9.216;2022-12-07T03:59:40;11.43;;;7.30;;
14205;SDS011;7186;48.800;9.216;2022-12-07T04:02:07;12.13;;;7.47;;
14205;SDS011;7186;48.800;9.216;2022-12-07T04:04:32;11.93;;;7.70;;
14205;SDS011;7186;48.800;9.216;2022-12-07T04:06:58;12.53;;;7.83;;
14205;SDS011;7186;48.800;9.216;2022-12-07T04:09:23;13.10;;;8.40;;
14205;SDS011;7186;48.800;9.216;2022-12-07T04:11:48;11.00;;;7.70;;
14205;SDS011;7186;48.800;9.216;2022-12-07T04:14:15;12.93;;;7.70;;
14205;SDS011;7186;48.800;9.216;2022-12-07T04:16:43;11.23;;;7.30;;
14205;SDS011;7186;48.800;9.216;2022-12-07T04:19:08;11.80;;;7.47;;
14205;SDS011;7186;48.800;9.216;2022-12-07T04:21:34;11.73;;;7.70;;
14205;SDS011;7186;48.800;9.216;2022-12-07T04:23:59;12.53;;;8.37;;
14205;SDS011;7186;48.800;9.216;2022-12-07T04:26:24;12.43;;;7.50;;
14205;SDS011;7186;48.800;9.216;2022-12-07T04:28:49;12.23;;;7.57;;
14205;SDS011;7186;48.800;9.216;2022-12-07T04:31:15;11.73;;;7.47;;
14205;SDS011;7186;48.800;9.216;2022-12-07T04:33:49;11.03;;;7.50;;
14205;SDS011;7186;48.800;9.216;2022-12-07T04:36:14;9.60;;;6.90;;
14205;SDS011;7186;48.800;9.216;2022-12-07T04:38:40;12.20;;;7.57;;
14205;SDS011;7186;48.800;9.216;2022-12-07T04:41:06;11.50;;;7.67;;
14205;SDS011;7186;48.800;9.216;2022-12-07T04:43:34;11.83;;;7.03;;
14205;SDS011;7186;48.800;9.216;2022-12-07T04:45:59;10.33;;;7.23;;
14205;SDS011;7186;48.800;9.216;2022-12-07T04:48:24;11.57;;;7.27;;
14205;SDS011;7186;48.800;9.216;2022-12-07T04:50:50;10.23;;;7.10;;
14205;SDS011;7186;48.800;9.216;2022-12-07T04:53:16;9.27;;;6.50;;
14205;SDS011;7186;48.800;9.216;2022-12-07T04:55:41;10.70;;;6.70;;
14205;SDS011;7186;48.800;9.216;2022-12-07T04:58:06;12.93;;;7.23;;
14205;SDS011;7186;48.800;9.216;2022-12-07T05:00:32;9.90;;;6.27;;
14205;SDS011;7186;48.800;9.216;2022-12-07T05:02:57;10.87;;;7.00;;
14205;SDS011;7186;48.800;9.216;2022-12-07T05:05:22;10.67;;;6.67;;
14205;SDS011;7186;48.800;9.216;2022-12-07T05:07:47;9.87;;;6.63;;
14205;SDS011;7186;48.800;9.216;2022-12-07T05:10:13;7.80;;;5.17;;
14205;SDS011;7186;48.800;9.216;2022-12-07T05:12:38;9.03;;;5.53;;
14205;SDS011;7186;48.800;9.216;2022-12-07T05:15:04;9.40;;;6.07;;
14205;SDS011;7186;48.800;9.216;2022-12-07T05:17:29;10.53;;;6.17;;
14205;SDS011;7186;48.800;9.216;2022-12-07T05:19:57;9.60;;;6.60;;
14205;SDS011;7186;48.800;9.216;2022-12-07T05:22:22;9.93;;;6.30;;
14205;SDS011;7186;48.800;9.216;2022-12-07T05:24:50;9.70;;;6.17;;
14205;SDS011;7186;48.800;9.216;2022-12-07T05:27:15;10.90;;;6.93;;
14205;SDS011;7186;48.800;9.216;2022-12-07T05:32:31;12.23;;;7.13;;
14205;SDS011;7186;48.800;9.216;2022-12-07T05:34:57;11.10;;;7.17;;
14205;SDS011;7186;48.800;9.216;2022-12-07T05:37:22;11.33;;;6.57;;
14205;SDS011;7186;48.800;9.216;2022-12-07T05:39:48;10.70;;;7.07;;
14205;SDS011;7186;48.800;9.216;2022-12-07T05:42:13;9.37;;;6.57;;
14205;SDS011;7186;48.800;9.216;2022-12-07T05:44:50;11.10;;;7.30;;
14205;SDS011;7186;48.800;9.216;2022-12-07T05:47:15;11.23;;;7.03;;
14205;SDS011;7186;48.800;9.216;2022-12-07T05:49:41;11.53;;;7.30;;
14205;SDS011;7186;48.800;9.216;2022-12-07T05:52:06;13.90;;;7.53;;
14205;SDS011;7186;48.800;9.216;2022-12-07T05:54:32;12.13;;;7.73;;
14205;SDS011;7186;48.800;9.216;2022-12-07T05:57:01;10.50;;;7.20;;
14205;SDS011;7186;48.800;9.216;2022-12-07T05:59:35;12.17;;;7.57;;
14205;SDS011;7186;48.800;9.216;2022-12-07T06:02:01;10.63;;;7.23;;
14205;SDS011;7186;48.800;9.216;2022-12-07T06:04:30;10.77;;;7.63;;
14205;SDS011;7186;48.800;9.216;2022-12-07T06:06:56;12.03;;;8.17;;
14205;SDS011;7186;48.800;9.216;2022-12-07T06:09:21;14.73;;;8.00;;
14205;SDS011;7186;48.800;9.216;2022-12-07T06:11:47;13.03;;;7.77;;
14205;SDS011;7186;48.800;9.216;2022-12-07T06:14:31;11.90;;;8.23;;
14205;SDS011;7186;48.800;9.216;2022-12-07T06:16:56;13.50;;;7.50;;
14205;SDS011;7186;48.800;9.216;2022-12-07T06:19:21;13.10;;;7.80;;
14205;SDS011;7186;48.800;9.216;2022-12-07T06:21:47;13.27;;;7.90;;
14205;SDS011;7186;48.800;9.216;2022-12-07T06:24:13;14.63;;;8.27;;
14205;SDS011;7186;48.800;9.216;2022-12-07T06:26:39;14.07;;;7.77;;
14205;SDS011;7186;48.800;9.216;2022-12-07T06:29:04;12.67;;;7.67;;
14205;SDS011;7186;48.800;9.216;2022-12-07T06:31:30;15.03;;;8.50;;
14205;SDS011;7186;48.800;9.216;2022-12-07T06:34:02;11.67;;;7.17;;
14205;SDS011;7186;48.800;9.216;2022-12-07T06:36:28;14.57;;;8.20;;
14205;SDS011;7186;48.800;9.216;2022-12-07T06:38:53;11.37;;;7.93;;
14205;SDS011;7186;48.800;9.216;2022-12-07T06:41:19;12.77;;;7.63;;
14205;SDS011;7186;48.800;9.216;2022-12-07T06:43:44;12.00;;;7.17;;
14205;SDS011;7186;48.800;9.216;2022-12-07T06:46:09;11.80;;;7.67;;
14205;SDS011;7186;48.800;9.216;2022-12-07T06:48:35;13.30;;;7.77;;
14205;SDS011;7186;48.800;9.216;2022-12-07T06:51:00;13.93;;;9.13;;
14205;SDS011;7186;48.800;9.216;2022-12-07T06:53:25;17.63;;;9.50;;
14205;SDS011;7186;48.800;9.216;2022-12-07T06:55:50;13.03;;;7.80;;
14205;SDS011;7186;48.800;9.216;2022-12-07T06:58:16;14.33;;;9.10;;
14205;SDS011;7186;48.800;9.216;2022-12-07T07:00:41;11.87;;;7.03;;
14205;SDS011;7186;48.800;9.216;2022-12-07T07:03:06;10.23;;;6.67;;
14205;SDS011;7186;48.800;9.216;2022-12-07T07:05:32;13.50;;;7.60;;
14205;SDS011;7186;48.800;9.216;2022-12-07T07:07:57;11.60;;;6.80;;
14205;SDS011;7186;48.800;9.216;2022-12-07T07:10:22;10.10;;;6.70;;
14205;SDS011;7186;48.800;9.216;2022-12-07T07:12:47;13.43;;;7.50;;
14205;SDS011;7186;48.800;9.216;2022-12-07T07:15:13;15.57;;;7.20;;
14205;SDS011;7186;48.800;9.216;2022-12-07T07:17:38;11.57;;;6.83;;
14205;SDS011;7186;48.800;9.216;2022-12-07T07:20:04;11.97;;;7.50;;
14205;SDS011;7186;48.800;9.216;2022-12-07T07:22:29;12.60;;;6.90;;
14205;SDS011;7186;48.800;9.216;2022-12-07T07:24:54;13.40;;;7.77;;
14205;SDS011;7186;48.800;9.216;2022-12-07T07:27:20;14.03;;;8.00;;
14205;SDS011;7186;48.800;9.216;2022-12-07T07:29:45;11.27;;;6.37;;
14205;SDS011;7186;48.800;9.216;2022-12-07T07:32:10;9.27;;;6.57;;
14205;SDS011;7186;48.800;9.216;2022-12-07T07:34:35;9.17;;;6.43;;
14205;SDS011;7186;48.800;9.216;2022-12-07T07:37:00;8.60;;;5.97;;
14205;SDS011;7186;48.800;9.216;2022-12-07T07:39:26;9.27;;;5.80;;
14205;SDS011;7186;48.800;9.216;2022-12-07T07:41:51;8.00;;;5.77;;
14205;SDS011;7186;48.800;9.216;2022-12-07T07:44:16;7.27;;;5.00;;
14205;SDS011;7186;48.800;9.216;2022-12-07T07:46:41;7.80;;;4.97;;
14205;SDS011;7186;48.800;9.216;2022-12-07T07:49:07;8.30;;;5.37;;
14205;SDS011;7186;48.800;9.216;2022-12-07T07:51:34;6.43;;;4.67;;
14205;SDS011;7186;48.800;9.216;2022-12-07T07:53:59;6.77;;;4.80;;
14205;SDS011;7186;48.800;9.216;2022-12-07T07:56:24;8.00;;;5.53;;
14205;SDS011;7186;48.800;9.216;2022-12-07T07:58:52;6.70;;;4.60;;
14205;SDS011;7186;48.800;9.216;2022-12-07T08:01:18;7.40;;;4.80;;
14205;SDS011;7186;48.800;9.216;2022-12-07T08:03:45;6.20;;;4.70;;
14205;SDS011;7186;48.800;9.216;2022-12-07T08:06:10;7.77;;;5.27;;
14205;SDS011;7186;48.800;9.216;2022-12-07T08:08:36;7.70;;;4.80;;
14205;SDS011;7186;48.800;9.216;2022-12-07T08:11:10;7.10;;;4.67;;
14205;SDS011;7186;48.800;9.216;2022-12-07T08:13:36;7.00;;;4.97;;
14205;SDS011;7186;48.800;9.216;2022-12-07T08:16:05;8.30;;;5.07;;
14205;SDS011;7186;48.800;9.216;2022-12-07T08:18:30;8.23;;;5.50;;
14205;SDS011;7186;48.800;9.216;2022-12-07T08:20:59;7.23;;;4.83;;
14205;SDS011;7186;48.800;9.216;2022-12-07T08:23:26;11.23;;;4.80;;
14205;SDS011;7186;48.800;9.216;2022-12-07T08:25:51;6.07;;;4.37;;
14205;SDS011;7186;48.800;9.216;2022-12-07T08:28:16;8.20;;;4.60;;
14205;SDS011;7186;48.800;9.216;2022-12-07T08:30:41;6.97;;;4.67;;
14205;SDS011;7186;48.800;9.216;2022-12-07T08:33:07;9.03;;;4.33;;
14205;SDS011;7186;48.800;9.216;2022-12-07T08:35:32;7.50;;;4.70;;
14205;SDS011;7186;48.800;9.216;2022-12-07T08:37:58;6.53;;;4.43;;
14205;SDS011;7186;48.800;9.216;2022-12-07T08:40:23;6.80;;;4.60;;
14205;SDS011;7186;48.800;9.216;2022-12-07T08:42:49;7.53;;;4.60;;
14205;SDS011;7186;48.800;9.216;2022-12-07T08:45:15;7.07;;;4.77;;
14205;SDS011;7186;48.800;9.216;2022-12-07T08:47:41;7.60;;;5.27;;
14205;SDS011;7186;48.800;9.216;2022-12-07T08:50:08;6.37;;;4.37;;
14205;SDS011;7186;48.800;9.216;2022-12-07T08:52:34;6.20;;;4.37;;
14205;SDS011;7186;48.800;9.216;2022-12-07T08:55:01;8.40;;;5.27;;
14205;SDS011;7186;48.800;9.216;2022-12-07T08:57:33;7.43;;;4.70;;
14205;SDS011;7186;48.800;9.216;2022-12-07T08:59:59;22.10;;;13.73;;
14205;SDS011;7186;48.800;9.216;2022-12-07T09:02:25;9.27;;;5.80;;
14205;SDS011;7186;48.800;9.216;2022-12-07T09:04:50;6.90;;;4.83;;
14205;SDS011;7186;48.800;9.216;2022-12-07T09:07:16;7.93;;;5.10;;
14205;SDS011;7186;48.800;9.216;2022-12-07T09:09:41;11.07;;;7.20;;
14205;SDS011;7186;48.800;9.216;2022-12-07T09:12:06;7.90;;;5.00;;
14205;SDS011;7186;48.800;9.216;2022-12-07T09:14:32;10.97;;;4.77;;
14205;SDS011;7186;48.800;9.216;2022-12-07T09:17:04;7.93;;;5.17;;
14205;SDS011;7186;48.800;9.216;2022-12-07T09:19:30;9.50;;;5.10;;
14205;SDS011;7186;48.800;9.216;2022-12-07T09:21:55;7.60;;;4.30;;
14205;SDS011;7186;48.800;9.216;2022-12-07T09:24:24;6.73;;;4.73;;
14205;SDS011;7186;48.800;9.216;2022-12-07T09:26:49;7.37;;;5.37;;
14205;SDS011;7186;48.800;9.216;2022-12-07T09:29:15;7.13;;;4.80;;
14205;SDS011;7186;48.800;9.216;2022-12-07T09:31:40;9.10;;;4.80;;
14205;SDS011;7186;48.800;9.216;2022-12-07T09:34:05;9.60;;;5.20;;
14205;SDS011;7186;48.800;9.216;2022-12-07T09:36:32;8.63;;;5.57;;
14205;SDS011;7186;48.800;9.216;2022-12-07T09:39:00;7.33;;;4.53;;
14205;SDS011;7186;48.800;9.216;2022-12-07T09:41:26;5.73;;;4.03;;
14205;SDS011;7186;48.800;9.216;2022-12-07T09:43:53;6.77;;;4.30;;
14205;SDS011;7186;48.800;9.216;2022-12-07T09:46:19;6.13;;;4.17;;
14205;SDS011;7186;48.800;9.216;2022-12-07T09:48:45;6.83;;;4.10;;
14205;SDS011;7186;48.800;9.216;2022-12-07T09:53:37;8.53;;;5.60;;
14205;SDS011;7186;48.800;9.216;2022-12-07T09:56:02;5.07;;;3.10;;
14205;SDS011;7186;48.800;9.216;2022-12-07T09:58:28;5.13;;;3.13;;
14205;SDS011;7186;48.800;9.216;2022-12-07T10:01:14;5.23;;;2.57;;
14205;SDS011;7186;48.800;9.216;2022-12-07T10:03:40;5.00;;;3.43;;
14205;SDS011;7186;48.800;9.216;2022-12-07T10:06:07;5.73;;;3.10;;
14205;SDS011;7186;48.800;9.216;2022-12-07T10:08:32;5.50;;;3.13;;
14205;SDS011;7186;48.800;9.216;2022-12-07T10:10:58;5.07;;;3.37;;
14205;SDS011;7186;48.800;9.216;2022-12-07T10:13:39;5.97;;;3.50;;
14205;SDS011;7186;48.800;9.216;2022-12-07T10:16:05;6.60;;;3.40;;
14205;SDS011;7186;48.800;9.216;2022-12-07T10:18:32;5.70;;;3.20;;
14205;SDS011;7186;48.800;9.216;2022-12-07T10:21:02;4.40;;;2.67;;
14205;SDS011;7186;48.800;9.216;2022-12-07T10:23:28;3.60;;;2.50;;
14205;SDS011;7186;48.800;9.216;2022-12-07T10:25:53;5.50;;;3.30;;
14205;SDS011;7186;48.800;9.216;2022-12-07T10:28:20;4.70;;;3.37;;
14205;SDS011;7186;48.800;9.216;2022-12-07T10:31:15;4.40;;;3.10;;
14205;SDS011;7186;48.800;9.216;2022-12-07T10:35:59;4.87;;;3.40;;
14205;SDS011;7186;48.800;9.216;2022-12-07T10:38:27;7.00;;;3.73;;
14205;SDS011;7186;48.800;9.216;2022-12-07T10:41:02;5.57;;;3.40;;
14205;SDS011;7186;48.800;9.216;2022-12-07T10:43:28;6.23;;;3.57;;
14205;SDS011;7186;48.800;9.216;2022-12-07T10:50:49;4.10;;;3.17;;
14205;SDS011;7186;48.800;9.216;2022-12-07T11:01:58;7.33;;;3.93;;
14205;SDS011;7186;48.800;9.216;2022-12-07T11:04:10;5.83;;;3.73;;
14205;SDS011;7186;48.800;9.216;2022-12-07T11:11:59;6.53;;;3.63;;
14205;SDS011;7186;48.800;9.216;2022-12-07T11:20:01;5.90;;;3.23;;
14205;SDS011;7186;48.800;9.216;2022-12-07T11:22:37;5.23;;;3.03;;
14205;SDS011;7186;48.800;9.216;2022-12-07T11:25:31;11.07;;;3.07;;
14205;SDS011;7186;48.800;9.216;2022-12-07T11:28:02;10.83;;;3.37;;
14205;SDS011;7186;48.800;9.216;2022-12-07T11:33:17;4.30;;;3.10;;
14205;SDS011;7186;48.800;9.216;2022-12-07T11:38:41;6.17;;;3.03;;
14205;SDS011;7186;48.800;9.216;2022-12-07T11:41:08;3.57;;;3.00;;
14205;SDS011;7186;48.800;9.216;2022-12-07T11:46:20;4.30;;;2.87;;
14205;SDS011;7186;48.800;9.216;2022-12-07T11:48:51;4.30;;;3.40;;
14205;SDS011;7186;48.800;9.216;2022-12-07T11:51:20;4.00;;;3.00;;
14205;SDS011;7186;48.800;9.216;2022-12-07T11:53:50;4.43;;;2.67;;
14205;SDS011;7186;48.800;9.216;2022-12-07T11:56:19;4.90;;;2.77;;
14205;SDS011;7186;48.800;9.216;2022-12-07T12:06:29;5.03;;;3.60;;
14205;SDS011;7186;48.800;9.216;2022-12-07T12:08:56;4.77;;;3.57;;
14205;SDS011;7186;48.800;9.216;2022-12-07T12:14:17;5.70;;;4.63;;
14205;SDS011;7186;48.800;9.216;2022-12-07T12:16:54;6.27;;;4.27;;
14205;SDS011;7186;48.800;9.216;2022-12-07T12:19:30;6.90;;;4.90;;
14205;SDS011;7186;48.800;9.216;2022-12-07T12:22:19;6.63;;;4.53;;
14205;SDS011;7186;48.800;9.216;2022-12-07T12:24:43;7.57;;;4.03;;
14205;SDS011;7186;48.800;9.216;2022-12-07T12:27:15;6.30;;;4.63;;
14205;SDS011;7186;48.800;9.216;2022-12-07T12:29:43;8.50;;;4.23;;
14205;SDS011;7186;48.800;9.216;2022-12-07T12:32:15;6.70;;;4.17;;
14205;SDS011;7186;48.800;9.216;2022-12-07T12:35:17;9.93;;;4.87;;
14205;SDS011;7186;48.800;9.216;2022-12-07T12:42:51;11.47;;;4.80;;
14205;SDS011;7186;48.800;9.216;2022-12-07T12:45:32;11.17;;;4.83;;
14205;SDS011;7186;48.800;9.216;2022-12-07T12:48:01;5.87;;;4.57;;
14205;SDS011;7186;48.800;9.216;2022-12-07T12:50:31;9.13;;;4.87;;
14205;SDS011;7186;48.800;9.216;2022-12-07T13:00:43;8.60;;;5.53;;
14205;SDS011;7186;48.800;9.216;2022-12-07T13:03:21;7.13;;;3.83;;
14205;SDS011;7186;48.800;9.216;2022-12-07T13:05:51;7.67;;;4.90;;
14205;SDS011;7186;48.800;9.216;2022-12-07T13:08:32;7.03;;;4.90;;
14205;SDS011;7186;48.800;9.216;2022-12-07T13:11:15;11.10;;;5.77;;
14205;SDS011;7186;48.800;9.216;2022-12-07T13:13:41;9.70;;;5.03;;
14205;SDS011;7186;48.800;9.216;2022-12-07T13:23:51;7.23;;;4.83;;
14205;SDS011;7186;48.800;9.216;2022-12-07T13:26:38;7.53;;;4.57;;
14205;SDS011;7186;48.800;9.216;2022-12-07T13:31:40;9.70;;;5.00;;
14205;SDS011;7186;48.800;9.216;2022-12-07T13:36:52;8.40;;;5.53;;
14205;SDS011;7186;48.800;9.216;2022-12-07T13:39:19;6.83;;;4.67;;
14205;SDS011;7186;48.800;9.216;2022-12-07T13:41:48;6.67;;;4.23;;
14205;SDS011;7186;48.800;9.216;2022-12-07T13:44:15;8.13;;;5.03;;
14205;SDS011;7186;48.800;9.216;2022-12-07T13:52:23;6.60;;;5.27;;
14205;SDS011;7186;48.800;9.216;2022-12-07T13:54:55;8.13;;;4.97;;
14205;SDS011;7186;48.800;9.216;2022-12-07T13:57:21;8.97;;;5.30;;
14205;SDS011;7186;48.800;9.216;2022-12-07T13:59:47;9.80;;;5.27;;
14205;SDS011;7186;48.800;9.216;2022-12-07T14:02:19;7.93;;;5.43;;
14205;SDS011;7186;48.800;9.216;2022-12-07T14:05:05;7.33;;;4.93;;
14205;SDS011;7186;48.800;9.216;2022-12-07T14:07:31;11.30;;;6.13;;
14205;SDS011;7186;48.800;9.216;2022-12-07T14:09:58;7.03;;;5.57;;
14205;SDS011;7186;48.800;9.216;2022-12-07T14:12:34;8.00;;;5.00;;
14205;SDS011;7186;48.800;9.216;2022-12-07T14:15:02;11.77;;;6.20;;
14205;SDS011;7186;48.800;9.216;2022-12-07T14:17:28;10.57;;;5.97;;
14205;SDS011;7186;48.800;9.216;2022-12-07T14:19:54;8.83;;;5.67;;
14205;SDS011;7186;48.800;9.216;2022-12-07T14:22:22;7.97;;;5.23;;
14205;SDS011;7186;48.800;9.216;2022-12-07T14:24:48;10.53;;;5.80;;
14205;SDS011;7186;48.800;9.216;2022-12-07T14:27:20;9.87;;;5.50;;
14205;SDS011;7186;48.800;9.216;2022-12-07T14:29:46;12.80;;;5.77;;
14205;SDS011;7186;48.800;9.216;2022-12-07T14:32:17;9.40;;;5.97;;
14205;SDS011;7186;48.800;9.216;2022-12-07T14:34:52;9.63;;;6.20;;
14205;SDS011;7186;48.800;9.216;2022-12-07T14:37:18;13.93;;;6.37;;
14205;SDS011;7186;48.800;9.216;2022-12-07T14:39:43;11.47;;;6.10;;
14205;SDS011;7186;48.800;9.216;2022-12-07T14:42:08;15.57;;;6.43;;
14205;SDS011;7186;48.800;9.216;2022-12-07T14:44:34;12.13;;;6.17;;
14205;SDS011;7186;48.800;9.216;2022-12-07T14:46:59;12.37;;;6.10;;
14205;SDS011;7186;48.800;9.216;2022-12-07T14:49:25;8.40;;;5.37;;
14205;SDS011;7186;48.800;9.216;2022-12-07T14:51:59;7.87;;;5.60;;
14205;SDS011;7186;48.800;9.216;2022-12-07T14:54:27;8.53;;;5.40;;
14205;SDS011;7186;48.800;9.216;2022-12-07T14:56:54;6.07;;;4.57;;
14205;SDS011;7186;48.800;9.216;2022-12-07T14:59:19;6.80;;;4.57;;
14205;SDS011;7186;48.800;9.216;2022-12-07T15:01:45;7.90;;;5.17;;
14205;SDS011;7186;48.800;9.216;2022-12-07T15:04:13;12.50;;;5.63;;
14205;SDS011;7186;48.800;9.216;2022-12-07T15:06:38;12.50;;;6.43;;
14205;SDS011;7186;48.800;9.216;2022-12-07T15:09:04;11.10;;;6.63;;
14205;SDS011;7186;48.800;9.216;2022-12-07T15:11:29;9.90;;;5.87;;
14205;SDS011;7186;48.800;9.216;2022-12-07T15:13:54;10.43;;;5.40;;
14205;SDS011;7186;48.800;9.216;2022-12-07T15:16:44;10.13;;;5.37;;
14205;SDS011;7186;48.800;9.216;2022-12-07T15:19:13;9.60;;;6.00;;
14205;SDS011;7186;48.800;9.216;2022-12-07T15:21:38;10.70;;;5.63;;
14205;SDS011;7186;48.800;9.216;2022-12-07T15:24:04;7.87;;;5.10;;
14205;SDS011;7186;48.800;9.216;2022-12-07T15:26:29;9.43;;;5.73;;
14205;SDS011;7186;48.800;9.216;2022-12-07T15:28:57;9.67;;;6.13;;
14205;SDS011;7186;48.800;9.216;2022-12-07T15:31:22;9.93;;;6.00;;
14205;SDS011;7186;48.800;9.216;2022-12-07T15:34:00;9.23;;;5.47;;
14205;SDS011;7186;48.800;9.216;2022-12-07T15:36:27;7.10;;;4.70;;
14205;SDS011;7186;48.800;9.216;2022-12-07T15:38:52;8.10;;;4.93;;
14205;SDS011;7186;48.800;9.216;2022-12-07T15:41:18;8.30;;;5.60;;
14205;SDS011;7186;48.800;9.216;2022-12-07T15:43:43;10.43;;;6.20;;
14205;SDS011;7186;48.800;9.216;2022-12-07T15:46:34;11.43;;;6.53;;
14205;SDS011;7186;48.800;9.216;2022-12-07T15:48:59;10.83;;;6.23;;
14205;SDS011;7186;48.800;9.216;2022-12-07T15:51:25;8.90;;;5.93;;
14205;SDS011;7186;48.800;9.216;2022-12-07T15:53:51;10.37;;;6.57;;
14205;SDS011;7186;48.800;9.216;2022-12-07T15:56:16;9.37;;;5.97;;
14205;SDS011;7186;48.800;9.216;2022-12-07T15:58:41;10.47;;;6.53;;
14205;SDS011;7186;48.800;9.216;2022-12-07T16:01:14;12.07;;;6.93;;
14205;SDS011;7186;48.800;9.216;2022-12-07T16:03:39;10.83;;;6.70;;
14205;SDS011;7186;48.800;9.216;2022-12-07T16:06:05;10.23;;;6.73;;
14205;SDS011;7186;48.800;9.216;2022-12-07T16:08:30;12.60;;;6.80;;
14205;SDS011;7186;48.800;9.216;2022-12-07T16:10:55;11.00;;;6.80;;
14205;SDS011;7186;48.800;9.216;2022-12-07T16:13:21;11.90;;;6.63;;
14205;SDS011;7186;48.800;9.216;2022-12-07T16:15:46;9.43;;;5.87;;
14205;SDS011;7186;48.800;9.216;2022-12-07T16:18:11;10.23;;;5.97;;
14205;SDS011;7186;48.800;9.216;2022-12-07T16:20:36;9.23;;;5.83;;
14205;SDS011;7186;48.800;9.216;2022-12-07T16:23:02;10.07;;;5.70;;
14205;SDS011;7186;48.800;9.216;2022-12-07T16:25:27;8.23;;;5.67;;
14205;SDS011;7186;48.800;9.216;2022-12-07T16:27:52;10.23;;;6.53;;
14205;SDS011;7186;48.800;9.216;2022-12-07T16:30:17;7.43;;;5.57;;
14205;SDS011;7186;48.800;9.216;2022-12-07T16:32:43;10.60;;;6.17;;
14205;SDS011;7186;48.800;9.216;2022-12-07T16:35:08;10.30;;;7.17;;
14205;SDS011;7186;48.800;9.216;2022-12-07T16:37:41;11.40;;;7.00;;
14205;SDS011;7186;48.800;9.216;2022-12-07T16:40:07;10.97;;;7.37;;
14205;SDS011;7186;48.800;9.216;2022-12-07T16:42:32;12.67;;;7.27;;
14205;SDS011;7186;48.800;9.216;2022-12-07T16:44:58;13.13;;;7.77;;